Time;durP1;ratioP1;P1;durP2;ratioP2;P2;SDS_P1;SDS_P2;PMS_P1;PMS_P2;Temp;Humidity;BMP_temperature;BMP_pressure;BME280_temperature;BME280_humidity;BME280_pressure;Samples;Min_cycle;Max_cycle;Signal;HPM_P1;HPM_P2
2022/12/07 00:01:57;;;;;;;;;;;;;;;1.77;100.00;101850.81;6215220;23;19923;-85
2022/12/07 00:04:22;;;;;;;;;;;;;;;1.70;100.00;101848.88;6216292;23;20316;-85
2022/12/07 00:06:51;;;;;;;;;;;;;;;1.63;100.00;101855.53;6216459;23;19912;-86
2022/12/07 00:09:17;;;;;;;;;;;;;;;1.56;100.00;101849.34;6215819;23;19912;-86
2022/12/07 00:11:42;;;;;;;;;;;;;;;1.52;100.00;101847.53;6216185;23;20313;-86
2022/12/07 00:14:10;;;;;;;;;;;;;;;1.49;100.00;101852.56;6215875;23;19950;-86
2022/12/07 00:16:35;;;;;;;;;;;;;;;1.47;100.00;101856.81;6216438;23;19912;-87
2022/12/07 00:19:01;;;;;;;;;;;;;;;1.45;100.00;101845.59;6216193;23;19919;-87
2022/12/07 00:21:34;;;;;;;;;;;;;;;1.38;100.00;101847.13;6215277;23;19969;-87
2022/12/07 00:24:00;;;;;;;;;;;;;;;1.33;100.00;101834.94;6215569;23;20725;-87
2022/12/07 00:26:36;;;;;;;;;;;;;;;1.29;100.00;101840.81;6215874;23;19912;-86
2022/12/07 00:29:03;;;;;;;;;;;;;;;1.25;100.00;101836.44;6214962;23;20256;-87
2022/12/07 00:31:30;;;;;;;;;;;;;;;1.20;100.00;101830.25;6216423;23;19912;-87
2022/12/07 00:33:55;;;;;;;;;;;;;;;1.21;100.00;101826.84;6215999;23;19915;-87
2022/12/07 00:36:21;;;;;;;;;;;;;;;1.23;100.00;101830.34;6215546;23;20312;-86
2022/12/07 00:38:46;;;;;;;;;;;;;;;1.26;100.00;101825.31;6215535;23;19987;-86
2022/12/07 00:41:13;;;;;;;;;;;;;;;1.29;100.00;101828.84;6216247;23;19951;-87
2022/12/07 00:43:40;;;;;;;;;;;;;;;1.30;100.00;101824.56;6214774;23;19919;-87
2022/12/07 00:46:05;;;;;;;;;;;;;;;1.29;100.00;101823.72;6216323;23;19912;-87
2022/12/07 00:48:30;;;;;;;;;;;;;;;1.29;100.00;101823.72;6215190;23;19934;-87
2022/12/07 00:50:55;;;;;;;;;;;;;;;1.33;100.00;101828.09;6214775;23;19966;-87
2022/12/07 00:53:22;;;;;;;;;;;;;;;1.34;100.00;101822.16;6215838;23;19918;-87
2022/12/07 00:55:47;;;;;;;;;;;;;;;1.34;100.00;101824.72;6215342;23;19916;-88
2022/12/07 00:58:12;;;;;;;;;;;;;;;1.33;100.00;101824.66;6214138;23;19912;-87
2022/12/07 01:00:38;;;;;;;;;;;;;;;1.30;100.00;101824.56;6214801;23;19912;-88
2022/12/07 01:03:04;;;;;;;;;;;;;;;1.25;100.00;101823.59;6214864;23;19924;-87
2022/12/07 01:05:30;;;;;;;;;;;;;;;1.17;100.00;101829.31;6214696;23;19920;-87
2022/12/07 01:07:55;;;;;;;;;;;;;;;1.11;100.00;101825.69;6214873;23;20236;-86
2022/12/07 01:10:20;;;;;;;;;;;;;;;1.06;100.00;101827.28;6215039;23;19912;-87
2022/12/07 01:12:45;;;;;;;;;;;;;;;0.99;100.00;101823.66;6215494;23;19912;-88
2022/12/07 01:15:11;;;;;;;;;;;;;;;0.93;100.00;101818.31;6216280;23;19919;-86
2022/12/07 01:17:36;;;;;;;;;;;;;;;0.89;100.00;101829.31;6214831;23;20339;-86
2022/12/07 01:20:01;;;;;;;;;;;;;;;0.87;100.00;101825.81;6215544;23;19916;-87
2022/12/07 01:22:26;;;;;;;;;;;;;;;0.85;100.00;101819.75;6215938;23;20291;-87
2022/12/07 01:24:52;;;;;;;;;;;;;;;0.84;100.00;101823.16;6214324;23;19999;-87
2022/12/07 01:27:17;;;;;;;;;;;;;;;0.86;100.00;101830.09;6215955;23;19983;-87
2022/12/07 01:29:42;;;;;;;;;;;;;;;0.91;100.00;101823.38;6215221;23;19912;-87
2022/12/07 01:32:07;;;;;;;;;;;;;;;1.01;100.00;101819.41;6214850;23;19912;-87
2022/12/07 01:34:32;;;;;;;;;;;;;;;1.10;100.00;101826.53;6215845;23;19994;-87
2022/12/07 01:36:58;;;;;;;;;;;;;;;1.17;100.00;101823.31;6215417;23;19943;-86
2022/12/07 01:39:23;;;;;;;;;;;;;;;1.25;100.00;101818.44;6215262;23;20348;-86
2022/12/07 01:41:49;;;;;;;;;;;;;;;1.33;100.00;101819.53;6215441;23;19919;-86
2022/12/07 01:44:15;;;;;;;;;;;;;;;1.41;100.00;101823.22;6214614;23;19912;-87
2022/12/07 01:46:42;;;;;;;;;;;;;;;1.46;100.00;101824.19;6214437;23;19912;-87
2022/12/07 01:49:28;;;;;;;;;;;;;;;1.46;100.00;101831.91;6215600;23;19943;-87
2022/12/07 01:51:57;;;;;;;;;;;;;;;1.47;100.00;101823.41;6198843;23;19912;-86
2022/12/07 01:54:23;;;;;;;;;;;;;;;1.50;100.00;101830.31;6214995;23;19915;-87
2022/12/07 01:56:51;;;;;;;;;;;;;;;1.53;100.00;101831.25;6215369;23;19991;-87
2022/12/07 01:59:17;;;;;;;;;;;;;;;1.58;100.00;101828.84;6215719;23;19987;-86
2022/12/07 02:01:42;;;;;;;;;;;;;;;1.59;100.00;101818.59;6214220;23;20302;-86
2022/12/07 02:04:08;;;;;;;;;;;;;;;1.56;100.00;101808.22;6215245;23;19950;-87
2022/12/07 02:06:35;;;;;;;;;;;;;;;1.51;100.00;101809.81;6215796;23;19946;-86
2022/12/07 02:09:00;;;;;;;;;;;;;;;1.49;100.00;101811.44;6214405;23;19919;-87
2022/12/07 02:11:25;;;;;;;;;;;;;;;1.51;100.00;101819.22;6215481;23;19912;-86
2022/12/07 02:13:51;;;;;;;;;;;;;;;1.52;100.00;101811.53;6214494;23;19915;-87
2022/12/07 02:16:30;;;;;;;;;;;;;;;1.54;100.00;101819.31;6215612;23;19934;-86
2022/12/07 02:19:09;;;;;;;;;;;;;;;1.57;100.00;101815.13;6215309;23;19920;-86
2022/12/07 02:21:44;;;;;;;;;;;;;;;1.56;100.00;101815.94;6214268;23;20295;-87
2022/12/07 02:24:25;;;;;;;;;;;;;;;1.53;100.00;101817.53;6215532;23;19919;-86
2022/12/07 02:26:50;;;;;;;;;;;;;;;1.45;100.00;101817.31;6214937;23;19915;-86
2022/12/07 02:29:21;;;;;;;;;;;;;;;1.35;100.00;101807.63;6214257;23;19912;-86
2022/12/07 02:31:57;;;;;;;;;;;;;;;1.26;100.00;101823.59;6215138;23;19943;-87
2022/12/07 02:34:37;;;;;;;;;;;;;;;1.22;100.00;101816.66;6215354;23;19916;-87
2022/12/07 02:37:09;;;;;;;;;;;;;;;1.19;100.00;101815.69;6214335;23;20015;-87
2022/12/07 02:39:44;;;;;;;;;;;;;;;1.15;100.00;101807.00;6215556;23;19973;-87
2022/12/07 02:42:13;;;;;;;;;;;;;;;1.08;100.00;101808.53;6214139;23;19915;-87
2022/12/07 02:44:39;;;;;;;;;;;;;;;1.02;100.00;101807.47;6214751;23;20279;-87
2022/12/07 02:47:07;;;;;;;;;;;;;;;0.98;100.00;101816.78;6214460;23;20218;-87
2022/12/07 02:49:35;;;;;;;;;;;;;;;0.95;100.00;101808.97;6213399;23;19916;-87
2022/12/07 02:52:00;;;;;;;;;;;;;;;0.97;100.00;101809.00;6215086;23;19958;-87
2022/12/07 02:54:25;;;;;;;;;;;;;;;1.05;100.00;101812.69;6215137;23;19912;-87
2022/12/07 02:57:01;;;;;;;;;;;;;;;1.13;100.00;101806.94;6213109;23;19935;-87
2022/12/07 02:59:41;;;;;;;;;;;;;;;1.17;100.00;101807.91;6214860;23;19912;-88
2022/12/07 03:02:24;;;;;;;;;;;;;;;1.16;100.00;101809.63;6214259;23;19938;-87
2022/12/07 03:04:55;;;;;;;;;;;;;;;1.15;100.00;101810.44;6214089;23;19923;-88
2022/12/07 03:07:20;;;;;;;;;;;;;;;1.13;100.00;101812.09;6214991;23;19971;-87
2022/12/07 03:10:02;;;;;;;;;;;;;;;1.10;100.00;101817.13;6214737;23;19911;-88
2022/12/07 03:12:31;;;;;;;;;;;;;;;1.07;100.00;101817.03;6213948;23;20380;-87
2022/12/07 03:15:07;;;;;;;;;;;;;;;1.06;100.00;101819.56;6214398;23;19912;-87
2022/12/07 03:17:34;;;;;;;;;;;;;;;1.01;100.00;101814.28;6213700;23;19919;-87
2022/12/07 03:20:01;;;;;;;;;;;;;;;1.00;100.00;101819.38;6214135;23;20372;-88
2022/12/07 03:22:29;;;;;;;;;;;;;;;0.97;100.00;101809.88;6215136;23;19912;-87
2022/12/07 03:24:57;;;;;;;;;;;;;;;0.93;100.00;101813.19;6214782;23;19982;-87
2022/12/07 03:27:25;;;;;;;;;;;;;;;0.89;100.00;101812.22;6216379;23;19958;-88
2022/12/07 03:30:02;;;;;;;;;;;;;;;0.85;100.00;101800.13;6215854;23;20344;-87
2022/12/07 03:32:36;;;;;;;;;;;;;;;0.80;100.00;101798.22;6216099;23;19962;-87
2022/12/07 03:35:22;;;;;;;;;;;;;;;0.76;100.00;101802.38;6215772;23;19908;-88
2022/12/07 03:37:50;;;;;;;;;;;;;;;0.70;100.00;101799.63;6215023;23;19912;-86
2022/12/07 03:40:22;;;;;;;;;;;;;;;0.73;100.00;101806.53;6215262;23;19955;-87
2022/12/07 03:42:47;;;;;;;;;;;;;;;0.82;100.00;101806.84;6216395;23;19912;-87
2022/12/07 03:45:13;;;;;;;;;;;;;;;0.93;100.00;101802.91;6215639;23;20328;-87
2022/12/07 03:47:38;;;;;;;;;;;;;;;0.99;100.00;101802.22;6216206;23;19915;-87
2022/12/07 03:50:21;;;;;;;;;;;;;;;0.99;100.00;101799.66;6216024;23;19950;-87
2022/12/07 03:52:55;;;;;;;;;;;;;;;1.00;100.00;101802.28;6215315;23;19981;-88
2022/12/07 03:55:29;;;;;;;;;;;;;;;1.05;100.00;101803.28;6216884;23;19912;-87
2022/12/07 03:57:59;;;;;;;;;;;;;;;1.11;100.00;101808.63;6215704;23;19912;-87
2022/12/07 04:00:24;;;;;;;;;;;;;;;1.17;100.00;101801.06;6215627;23;19935;-87
2022/12/07 04:02:53;;;;;;;;;;;;;;;1.21;100.00;101809.78;6215603;23;20324;-87
2022/12/07 04:05:19;;;;;;;;;;;;;;;1.25;100.00;101805.59;6216511;23;19919;-87
2022/12/07 04:07:44;;;;;;;;;;;;;;;1.29;100.00;101802.28;6215285;23;19911;-87
2022/12/07 04:10:09;;;;;;;;;;;;;;;1.38;100.00;101800.00;6216752;23;19966;-87
2022/12/07 04:12:35;;;;;;;;;;;;;;;1.46;100.00;101797.63;6216608;23;19947;-87
2022/12/07 04:15:00;;;;;;;;;;;;;;;1.54;100.00;101802.19;6215333;23;19958;-87
2022/12/07 04:17:25;;;;;;;;;;;;;;;1.62;100.00;101794.69;6216724;23;19958;-86
2022/12/07 04:19:50;;;;;;;;;;;;;;;1.68;100.00;101801.69;6216254;23;20335;-87
2022/12/07 04:22:15;;;;;;;;;;;;;;;1.72;100.00;101796.69;6215131;23;20312;-87
2022/12/07 04:24:41;;;;;;;;;;;;;;;1.75;100.00;101798.47;6216105;23;19912;-87
2022/12/07 04:27:06;;;;;;;;;;;;;;;1.74;100.00;101791.59;6216635;23;19997;-87
2022/12/07 04:29:31;;;;;;;;;;;;;;;1.76;100.00;101795.94;6215682;23;20311;-87
2022/12/07 04:31:56;;;;;;;;;;;;;;;1.77;100.00;101795.13;6215916;23;20299;-87
2022/12/07 04:34:21;;;;;;;;;;;;;;;1.80;100.00;101791.78;6215587;23;19962;-87
2022/12/07 04:36:47;;;;;;;;;;;;;;;1.83;100.00;101786.69;6216049;23;19912;-87
2022/12/07 04:39:21;;;;;;;;;;;;;;;1.85;100.00;101779.91;6216380;23;19962;-87
2022/12/07 04:41:47;;;;;;;;;;;;;;;1.89;100.00;101779.13;6214935;23;19951;-87
2022/12/07 04:44:14;;;;;;;;;;;;;;;1.91;100.00;101774.91;6216534;23;19923;-87
2022/12/07 04:46:39;;;;;;;;;;;;;;;1.95;100.00;101783.59;6215958;23;19919;-87
2022/12/07 04:49:04;;;;;;;;;;;;;;;1.98;100.00;101783.66;6215536;23;19912;-86
2022/12/07 04:51:29;;;;;;;;;;;;;;;2.00;100.00;101782.88;6216467;23;19959;-87
2022/12/07 04:53:55;;;;;;;;;;;;;;;2.01;100.00;101782.03;6215966;23;19912;-87
2022/12/07 04:56:20;;;;;;;;;;;;;;;2.03;100.00;101784.69;6215622;23;19918;-87
2022/12/07 04:58:46;;;;;;;;;;;;;;;2.05;100.00;101793.28;6215652;23;19919;-86
2022/12/07 05:01:12;;;;;;;;;;;;;;;2.07;100.00;101778.78;6216183;23;19912;-87
2022/12/07 05:03:37;;;;;;;;;;;;;;;1.99;100.00;101754.53;6214725;23;19916;-87
2022/12/07 05:06:03;;;;;;;;;;;;;;;2.06;100.00;101775.34;6215855;23;19912;-87
2022/12/07 05:08:28;;;;;;;;;;;;;;;2.06;100.00;101775.34;6215087;23;19916;-87
2022/12/07 05:10:53;;;;;;;;;;;;;;;2.07;100.00;101777.06;6214963;23;19965;-87
2022/12/07 05:13:18;;;;;;;;;;;;;;;2.08;100.00;101767.66;6215532;23;19965;-87
2022/12/07 05:15:44;;;;;;;;;;;;;;;2.08;100.00;101771.09;6215584;23;19935;-87
2022/12/07 05:18:11;;;;;;;;;;;;;;;2.10;100.00;101768.56;6215180;23;20231;-87
2022/12/07 05:20:37;;;;;;;;;;;;;;;2.09;100.00;101766.81;6216127;23;19982;-87
2022/12/07 05:23:02;;;;;;;;;;;;;;;2.10;100.00;101768.56;6215496;23;19966;-87
2022/12/07 05:25:27;;;;;;;;;;;;;;;2.09;100.00;101765.13;6214232;23;19958;-87
2022/12/07 05:27:54;;;;;;;;;;;;;;;2.05;100.00;101767.56;6215006;23;19912;-86
2022/12/07 05:30:19;;;;;;;;;;;;;;;2.01;100.00;101766.63;6215848;23;19919;-88
2022/12/07 05:32:44;;;;;;;;;;;;;;;1.97;100.00;101772.50;6214114;23;19912;-88
2022/12/07 05:35:09;;;;;;;;;;;;;;;1.92;100.00;101771.50;6215878;23;19919;-88
2022/12/07 05:37:35;;;;;;;;;;;;;;;1.84;100.00;101773.03;6215918;23;19912;-87
2022/12/07 05:40:00;;;;;;;;;;;;;;;1.75;100.00;101773.63;6214144;23;19916;-87
2022/12/07 05:42:25;;;;;;;;;;;;;;;1.67;100.00;101774.22;6215764;23;19912;-87
2022/12/07 05:44:50;;;;;;;;;;;;;;;1.53;100.00;101767.00;6214098;23;19912;-87
2022/12/07 05:47:15;;;;;;;;;;;;;;;1.42;100.00;101765.84;6215734;23;19912;-87
2022/12/07 05:49:41;;;;;;;;;;;;;;;1.30;100.00;101763.78;6214956;23;19919;-88
2022/12/07 05:52:06;;;;;;;;;;;;;;;1.20;100.00;101768.63;6214409;23;19916;-88
2022/12/07 05:54:32;;;;;;;;;;;;;;;1.10;100.00;101765.75;6215709;23;19916;-88
2022/12/07 05:56:57;;;;;;;;;;;;;;;1.02;100.00;101764.69;6215421;23;20792;-87
2022/12/07 05:59:23;;;;;;;;;;;;;;;0.95;100.00;101757.63;6214745;23;19912;-87
2022/12/07 06:01:56;;;;;;;;;;;;;;;0.86;100.00;101759.91;6214952;23;20237;-87
2022/12/07 06:04:22;;;;;;;;;;;;;;;0.78;100.00;101764.78;6215667;23;20068;-88
2022/12/07 06:06:47;;;;;;;;;;;;;;;0.72;100.00;101763.72;6214308;23;20312;-87
2022/12/07 06:09:13;;;;;;;;;;;;;;;0.66;100.00;101775.53;6215483;23;19955;-87
2022/12/07 06:14:22;;;;;;;;;;;;;;;0.59;100.00;101771.03;6214396;23;19962;-87
2022/12/07 06:16:47;;;;;;;;;;;;;;;0.56;100.00;101773.50;6215232;23;19912;-87
2022/12/07 06:19:13;;;;;;;;;;;;;;;0.51;100.00;101769.03;6215590;23;19912;-87
2022/12/07 06:21:38;;;;;;;;;;;;;;;0.47;100.00;101773.22;6214265;23;20213;-88
2022/12/07 06:24:03;;;;;;;;;;;;;;;0.42;100.00;101769.59;6215442;23;19912;-88
2022/12/07 06:26:29;;;;;;;;;;;;;;;0.39;100.00;101775.53;6215402;23;20240;-87
2022/12/07 06:28:54;;;;;;;;;;;;;;;0.36;100.00;101772.88;6214305;23;19960;-87
2022/12/07 06:31:19;;;;;;;;;;;;;;;0.36;100.00;101774.53;6215576;23;20312;-87
2022/12/07 06:33:44;;;;;;;;;;;;;;;0.34;100.00;101773.63;6214661;23;19919;-86
2022/12/07 06:36:10;;;;;;;;;;;;;;;0.35;100.00;101781.34;6213894;23;19912;-87
2022/12/07 06:38:35;;;;;;;;;;;;;;;0.38;100.00;101772.91;6215050;23;20320;-87
2022/12/07 06:41:00;;;;;;;;;;;;;;;0.42;100.00;101775.59;6213205;23;19954;-88
2022/12/07 06:43:25;;;;;;;;;;;;;;;0.49;100.00;101778.38;6215079;23;19966;-88
2022/12/07 06:45:51;;;;;;;;;;;;;;;0.56;100.00;101782.91;6214819;23;19912;-88
2022/12/07 06:48:16;;;;;;;;;;;;;;;0.60;100.00;101777.91;6214494;23;19912;-88
2022/12/07 06:50:43;;;;;;;;;;;;;;;0.67;100.00;101777.28;6215059;23;19943;-88
2022/12/07 06:53:09;;;;;;;;;;;;;;;0.74;100.00;101783.47;6215394;23;19912;-88
2022/12/07 06:55:34;;;;;;;;;;;;;;;0.76;100.00;101784.41;6214485;23;19919;-88
2022/12/07 06:57:59;;;;;;;;;;;;;;;0.75;100.00;101777.50;6215564;23;20236;-88
2022/12/07 07:00:24;;;;;;;;;;;;;;;0.74;100.00;101783.47;6217390;23;20335;-88
2022/12/07 07:02:49;;;;;;;;;;;;;;;0.73;100.00;101778.31;6215530;23;20236;-87
2022/12/07 07:05:16;;;;;;;;;;;;;;;0.74;100.00;101772.34;6217392;23;19912;-88
2022/12/07 07:07:41;;;;;;;;;;;;;;;0.78;100.00;101772.47;6216907;23;19912;-87
2022/12/07 07:10:06;;;;;;;;;;;;;;;0.79;100.00;101781.94;6216455;23;19966;-88
2022/12/07 07:12:31;;;;;;;;;;;;;;;0.78;100.00;101780.19;6217082;23;20328;-88
2022/12/07 07:14:57;;;;;;;;;;;;;;;0.76;100.00;101780.97;6216682;23;19916;-87
2022/12/07 07:17:22;;;;;;;;;;;;;;;0.77;100.00;101785.28;6215848;23;19979;-88
2022/12/07 07:19:47;;;;;;;;;;;;;;;0.79;100.00;101781.94;6215792;23;20338;-87
2022/12/07 07:22:12;;;;;;;;;;;;;;;0.83;100.00;101781.22;6216651;23;20232;-88
2022/12/07 07:24:37;;;;;;;;;;;;;;;0.85;100.00;101778.66;6216140;23;19919;-87
2022/12/07 07:27:03;;;;;;;;;;;;;;;0.84;100.00;101784.63;6216059;23;19947;-84
2022/12/07 07:29:28;;;;;;;;;;;;;;;0.86;100.00;101785.56;6216016;23;20294;-86
2022/12/07 07:31:53;;;;;;;;;;;;;;;0.89;100.00;101785.66;6215088;23;19931;-86
2022/12/07 07:34:18;;;;;;;;;;;;;;;0.91;100.00;101779.72;6216672;23;19912;-86
2022/12/07 07:36:43;;;;;;;;;;;;;;;0.95;100.00;101788.44;6214392;23;19912;-86
2022/12/07 07:39:09;;;;;;;;;;;;;;;0.98;100.00;101788.53;6215249;23;19912;-86
2022/12/07 07:41:35;;;;;;;;;;;;;;;0.98;100.00;101791.09;6216036;23;19918;-81
2022/12/07 07:44:00;;;;;;;;;;;;;;;0.98;100.00;101793.66;6216637;23;19912;-86
2022/12/07 07:46:25;;;;;;;;;;;;;;;0.97;100.00;101791.91;6215252;23;19974;-87
2022/12/07 07:48:50;;;;;;;;;;;;;;;0.92;100.00;101790.91;6215148;23;19919;-87
2022/12/07 07:51:15;;;;;;;;;;;;;;;0.90;100.00;101792.53;6215804;23;19912;-83
2022/12/07 07:53:40;;;;;;;;;;;;;;;0.87;100.00;101795.88;6216339;23;19958;-84
2022/12/07 07:56:06;;;;;;;;;;;;;;;0.89;100.00;101795.94;6216815;23;19919;-86
2022/12/07 07:58:31;;;;;;;;;;;;;;;0.91;100.00;101794.28;6214403;23;19943;-86
2022/12/07 08:00:56;;;;;;;;;;;;;;;0.95;100.00;101788.44;6213178;23;19941;-87
2022/12/07 08:03:21;;;;;;;;;;;;;;;0.96;100.00;101797.88;6215754;23;19947;-87
2022/12/07 08:05:47;;;;;;;;;;;;;;;0.95;100.00;101796.13;6214413;23;19912;-87
2022/12/07 08:08:12;;;;;;;;;;;;;;;0.92;100.00;101789.19;6215187;23;19922;-86
2022/12/07 08:10:37;;;;;;;;;;;;;;;0.91;100.00;101800.28;6216223;23;19916;-86
2022/12/07 08:13:11;;;;;;;;;;;;;;;0.91;100.00;101791.72;6215473;23;19916;-86
2022/12/07 08:15:38;;;;;;;;;;;;;;;0.95;100.00;101801.28;6216275;23;20244;-86
2022/12/07 08:18:03;;;;;;;;;;;;;;;0.94;100.00;101802.06;6215395;23;19919;-87
2022/12/07 08:20:32;;;;;;;;;;;;;;;0.91;100.00;101799.41;6215304;23;19912;-87
2022/12/07 08:22:57;;;;;;;;;;;;;;;0.90;100.00;101802.81;6216061;23;19916;-87
2022/12/07 08:25:23;;;;;;;;;;;;;;;0.91;100.00;101807.97;6216691;23;19919;-87
2022/12/07 08:27:48;;;;;;;;;;;;;;;0.98;100.00;101815.88;6214932;23;19946;-87
2022/12/07 08:30:14;;;;;;;;;;;;;;;1.03;100.00;101810.06;6216506;23;19919;-85
2022/12/07 08:32:39;;;;;;;;;;;;;;;1.09;100.00;101812.81;6216087;23;19919;-83
2022/12/07 08:35:04;;;;;;;;;;;;;;;1.16;100.00;101806.19;6214915;23;19922;-85
2022/12/07 08:37:29;;;;;;;;;;;;;;;1.21;100.00;101814.00;6215436;23;19918;-84
2022/12/07 08:39:55;;;;;;;;;;;;;;;1.28;100.00;101818.53;6215523;23;19912;-84
2022/12/07 08:42:22;;;;;;;;;;;;;;;1.35;100.00;101818.75;6215523;23;19919;-84
2022/12/07 08:44:48;;;;;;;;;;;;;;;1.42;100.00;101812.09;6216090;23;19947;-84
2022/12/07 08:47:13;;;;;;;;;;;;;;;1.51;100.00;101822.66;6215572;23;19912;-84
2022/12/07 08:49:43;;;;;;;;;;;;;;;1.61;100.00;101822.09;6214481;23;19948;-84
2022/12/07 08:52:08;;;;;;;;;;;;;;;1.73;100.00;101816.41;6214513;23;20221;-84
2022/12/07 08:54:36;;;;;;;;;;;;;;;1.84;100.00;101820.16;6214734;23;19966;-83
2022/12/07 08:57:01;;;;;;;;;;;;;;;1.96;100.00;101808.47;6214907;23;19923;-84
2022/12/07 08:59:27;;;;;;;;;;;;;;;2.07;100.00;101817.34;6216279;23;19944;-84
2022/12/07 09:01:52;;;;;;;;;;;;;;;2.16;100.00;101811.56;6214131;23;20006;-85
2022/12/07 09:04:18;;;;;;;;;;;;;;;2.25;100.00;101806.66;6215604;23;19912;-85
2022/12/07 09:06:43;;;;;;;;;;;;;;;2.30;100.00;101805.09;6215587;23;19912;-86
2022/12/07 09:09:09;;;;;;;;;;;;;;;2.36;100.00;101802.69;6215382;23;19912;-85
2022/12/07 09:11:34;;;;;;;;;;;;;;;2.41;100.00;101797.63;6216028;23;19987;-84
2022/12/07 09:13:59;;;;;;;;;;;;;;;2.46;100.00;101798.66;6215482;23;19954;-85
2022/12/07 09:16:25;;;;;;;;;;;;;;;2.53;100.00;101805.69;6214124;23;19919;-85
2022/12/07 09:18:50;;;;;;;;;;;;;;;2.56;100.00;101798.91;6215594;23;19935;-85
2022/12/07 09:21:15;;;;;;;;;;;;;;;2.58;100.00;101797.25;6215764;23;19914;-85
2022/12/07 09:23:42;;;;;;;;;;;;;;;2.61;100.00;101800.72;6214771;23;19965;-85
2022/12/07 09:26:07;;;;;;;;;;;;;;;2.57;100.00;101805.78;6215518;23;20096;-85
2022/12/07 09:28:33;;;;;;;;;;;;;;;2.53;100.00;101805.69;6215723;23;19916;-85
2022/12/07 09:30:58;;;;;;;;;;;;;;;2.44;100.00;101796.00;6214630;23;19990;-85
2022/12/07 09:33:23;;;;;;;;;;;;;;;2.32;100.00;101794.03;6215760;23;19912;-85
2022/12/07 09:35:49;;;;;;;;;;;;;;;2.22;100.00;101801.44;6215584;23;19919;-84
2022/12/07 09:38:15;;;;;;;;;;;;;;;2.11;100.00;101807.19;6214946;23;19912;-84
2022/12/07 09:40:43;;;;;;;;;;;;;;;2.04;100.00;101805.28;6215582;23;19918;-85
2022/12/07 09:43:13;;;;;;;;;;;;;;;1.97;100.00;101810.22;6215632;23;19912;-85
2022/12/07 09:45:38;;;;;;;;;;;;;;;1.90;100.00;101804.03;6214706;23;19994;-85
2022/12/07 09:48:03;;;;;;;;;;;;;;;1.86;100.00;101808.25;6215546;23;19912;-85
2022/12/07 09:50:29;;;;;;;;;;;;;;;1.87;100.00;101802.25;6214411;23;19912;-85
2022/12/07 09:53:02;;;;;;;;;;;;;;;1.92;100.00;101807.50;6213683;23;19923;-85
2022/12/07 11:56:12;;;;;;;;;;;;;;;5.62;100.00;101696.72;6216909;22;20148;-84
2022/12/07 11:58:50;;;;;;;;;;;;;;;5.58;100.00;101688.06;6214719;23;19916;-85
2022/12/07 12:01:22;;;;;;;;;;;;;;;5.43;100.00;101693.09;6215316;23;20338;-85
2022/12/07 12:03:49;;;;;;;;;;;;;;;5.25;100.00;101683.41;6216377;23;19912;-85
2022/12/07 12:06:14;;;;;;;;;;;;;;;5.10;100.00;101683.19;6216772;23;19919;-85
2022/12/07 12:08:45;;;;;;;;;;;;;;;4.99;100.00;101674.47;6215420;23;20244;-85
2022/12/07 12:11:13;;;;;;;;;;;;;;;4.84;100.00;101675.09;6216146;23;19982;-85
2022/12/07 12:13:50;;;;;;;;;;;;;;;4.69;100.00;101676.66;6216261;23;19958;-86
2022/12/07 12:16:45;;;;;;;;;;;;;;;4.62;100.00;101673.97;6215194;23;19912;-86
2022/12/07 12:19:12;;;;;;;;;;;;;;;4.56;100.00;101672.16;6161053;23;20221;-86
2022/12/07 12:21:38;;;;;;;;;;;;;;;4.60;100.00;101667.91;6216758;23;19908;-85
2022/12/07 12:24:10;;;;;;;;;;;;;;;4.75;100.00;101668.13;6215609;23;19912;-86
2022/12/07 12:26:36;;;;;;;;;;;;;;;4.91;100.00;101661.44;6215729;23;19978;-86
2022/12/07 12:29:03;;;;;;;;;;;;;;;5.05;100.00;101651.28;6216163;23;19939;-85
2022/12/07 12:31:38;;;;;;;;;;;;;;;5.24;100.00;101644.63;6215022;23;19920;-85
2022/12/07 12:34:24;;;;;;;;;;;;;;;5.40;100.00;101642.22;6216673;23;19981;-84
2022/12/07 12:36:49;;;;;;;;;;;;;;;5.56;100.00;101645.81;6214941;23;19912;-84
2022/12/07 12:39:16;;;;;;;;;;;;;;;5.70;100.00;101640.78;6215536;23;19916;-85
2022/12/07 12:42:05;;;;;;;;;;;;;;;5.76;100.00;101639.97;6216757;23;19991;-86
2022/12/07 12:44:29;;;;;;;;;;;;;;;5.72;100.00;101640.78;6212758;23;19916;-84
2022/12/07 12:46:57;;;;;;;;;;;;;;;5.59;100.00;101640.69;6216397;23;19916;-84
2022/12/07 12:49:22;;;;;;;;;;;;;;;5.45;100.00;101637.06;6214387;23;19920;-85
2022/12/07 12:52:03;;;;;;;;;;;;;;;5.35;100.00;101630.06;6216062;23;19912;-84
2022/12/07 12:54:29;;;;;;;;;;;;;;;5.25;100.00;101626.53;6215999;23;20009;-86
2022/12/07 12:57:13;;;;;;;;;;;;;;;5.20;100.00;101628.19;6215465;23;20354;-83
2022/12/07 12:59:41;;;;;;;;;;;;;;;5.16;100.00;101616.06;6214509;23;19994;-84
2022/12/07 13:02:06;;;;;;;;;;;;;;;5.15;100.00;101616.94;6215898;23;19916;-80
2022/12/07 13:04:39;;;;;;;;;;;;;;;5.16;100.00;101616.06;6215051;23;20236;-81
2022/12/07 13:07:08;;;;;;;;;;;;;;;5.16;100.00;101616.06;6214619;23;19916;-80
2022/12/07 13:09:35;;;;;;;;;;;;;;;5.17;100.00;101607.50;6215650;23;19912;-82
2022/12/07 13:12:05;;;;;;;;;;;;;;;5.15;100.00;101611.75;6215341;23;19912;-80
2022/12/07 13:14:41;;;;;;;;;;;;;;;5.05;100.00;101607.34;6214118;23;19961;-80
2022/12/07 13:17:10;;;;;;;;;;;;;;;4.92;100.00;101602.03;6216410;23;19911;-80
2022/12/07 13:19:41;;;;;;;;;;;;;;;4.84;100.00;101608.84;6213979;23;19912;-80
2022/12/07 13:22:37;;;;;;;;;;;;;;;4.74;100.00;101601.81;6215002;23;19912;-81
2022/12/07 13:25:20;;;;;;;;;;;;;;;4.66;100.00;101603.41;6210847;23;19958;-79
2022/12/07 13:27:55;;;;;;;;;;;;;;;4.60;100.00;101600.75;6214182;23;20272;-80
2022/12/07 13:30:21;;;;;;;;;;;;;;;4.61;100.00;101597.31;6214995;23;19982;-81
2022/12/07 13:32:59;;;;;;;;;;;;;;;4.59;100.00;101597.31;6215502;23;19918;-80
2022/12/07 13:35:28;;;;;;;;;;;;;;;4.63;100.00;101595.63;6214702;23;19911;-80
2022/12/07 13:37:53;;;;;;;;;;;;;;;4.75;100.00;101594.94;6215656;23;19912;-79
2022/12/07 13:40:22;;;;;;;;;;;;;;;4.97;100.00;101593.44;6213093;23;19919;-80
2022/12/07 13:42:48;;;;;;;;;;;;;;;5.27;100.00;101587.78;6214142;23;19912;-79
2022/12/07 13:45:51;;;;;;;;;;;;;;;5.45;100.00;101581.91;6215401;23;19911;-81
2022/12/07 13:48:23;;;;;;;;;;;;;;;5.50;100.00;101588.00;6213948;23;20078;-80
2022/12/07 13:50:52;;;;;;;;;;;;;;;5.41;100.00;101573.25;6214967;23;19911;-84
2022/12/07 13:53:20;;;;;;;;;;;;;;;5.35;100.00;101575.78;6215359;23;19935;-81
2022/12/07 13:55:46;;;;;;;;;;;;;;;5.34;100.00;101574.91;6212542;23;19919;-83
2022/12/07 13:58:12;;;;;;;;;;;;;;;5.40;100.00;101574.13;6214640;23;19958;-81
2022/12/07 14:00:37;;;;;;;;;;;;;;;5.42;100.00;101572.38;6214756;23;20308;-82
2022/12/07 14:03:02;;;;;;;;;;;;;;;5.48;100.00;101571.59;6212965;23;19912;-81
2022/12/07 14:05:27;;;;;;;;;;;;;;;5.51;100.00;101569.03;6214574;23;19912;-81
2022/12/07 14:07:57;;;;;;;;;;;;;;;5.48;100.00;101572.44;6214560;23;20227;-83
2022/12/07 14:10:24;;;;;;;;;;;;;;;5.46;100.00;101573.28;6214510;23;19923;-83
2022/12/07 14:12:50;;;;;;;;;;;;;;;5.44;100.00;101567.25;6214879;23;19939;-82
2022/12/07 14:15:20;;;;;;;;;;;;;;;5.46;100.00;101562.94;6214141;23;19916;-84
2022/12/07 14:17:52;;;;;;;;;;;;;;;5.46;100.00;101557.75;6215169;23;19943;-82
2022/12/07 14:20:31;;;;;;;;;;;;;;;5.43;100.00;101552.56;6214540;23;19912;-83
2022/12/07 14:22:56;;;;;;;;;;;;;;;5.36;100.00;101549.94;6215073;23;19912;-84
2022/12/07 14:25:32;;;;;;;;;;;;;;;5.21;100.00;101548.94;6214510;23;20034;-84
2022/12/07 14:27:58;;;;;;;;;;;;;;;4.99;100.00;101547.84;6214679;23;19911;-85
2022/12/07 14:30:26;;;;;;;;;;;;;;;4.77;100.00;101547.56;6214590;23;19912;-84
2022/12/07 14:32:53;;;;;;;;;;;;;;;4.61;100.00;101550.81;6215428;23;20312;-82
2022/12/07 14:35:18;;;;;;;;;;;;;;;4.46;100.00;101548.94;6215390;23;19912;-82
2022/12/07 14:37:45;;;;;;;;;;;;;;;4.36;100.00;101541.91;6213722;23;19912;-83
2022/12/07 14:40:14;;;;;;;;;;;;;;;4.28;100.00;101544.38;6214135;23;20287;-82
2022/12/07 14:42:39;;;;;;;;;;;;;;;4.20;100.00;101543.41;6215308;23;19912;-82